createdAt,value
2022-08-20T00:02:17.679Z,18.20
2022-08-20T00:07:18.290Z,18.20
2022-08-20T00:09:45.772Z,18.20
2022-08-20T00:12:17.376Z,18.20
2022-08-20T00:14:48.120Z,18.10
2022-08-20T00:17:15.674Z,18.10
2022-08-20T00:19:43.145Z,18.10
2022-08-20T00:24:38.510Z,18.10
2022-08-20T00:27:08.583Z,18.10
2022-08-20T00:29:36.145Z,18.00
2022-08-20T00:32:03.967Z,17.90
2022-08-20T00:34:31.691Z,17.90
2022-08-20T00:36:59.091Z,17.90
2022-08-20T00:41:54.702Z,17.80
2022-08-20T00:44:23.907Z,17.90
2022-08-20T00:46:52.475Z,17.90
2022-08-20T00:49:26.573Z,17.90
2022-08-20T00:51:57.693Z,17.80
2022-08-20T00:54:33.681Z,17.80
2022-08-20T00:57:05.887Z,17.80
2022-08-20T00:59:40.006Z,17.80
2022-08-20T01:02:14.521Z,17.70
2022-08-20T01:04:46.401Z,16.30
2022-08-20T01:07:13.845Z,17.70
2022-08-20T01:09:57.864Z,17.70
2022-08-20T01:12:27.792Z,17.80
2022-08-20T01:14:58.626Z,17.70
2022-08-20T01:17:29.564Z,17.60
2022-08-20T01:20:07.508Z,17.70
2022-08-20T01:23:22.727Z,17.60
2022-08-20T01:25:56.495Z,17.60
2022-08-20T01:28:27.909Z,17.60
2022-08-20T01:30:55.236Z,17.60
2022-08-20T01:33:25.555Z,17.60
2022-08-20T01:35:54.126Z,17.60
2022-08-20T01:38:22.021Z,17.60
2022-08-20T01:41:15.048Z,17.50
2022-08-20T01:43:45.801Z,17.50
2022-08-20T01:46:15.487Z,17.50
2022-08-20T01:48:47.203Z,17.40
2022-08-20T01:51:23.996Z,17.40
2022-08-20T01:53:53.910Z,17.40
2022-08-20T01:56:28.650Z,17.30
2022-08-20T01:58:59.087Z,17.30
2022-08-20T02:01:33.930Z,17.30
2022-08-20T02:04:18.017Z,17.30
2022-08-20T02:06:56.234Z,17.20
2022-08-20T02:09:27.274Z,17.20
2022-08-20T02:11:55.627Z,17.20
2022-08-20T02:14:22.970Z,17.10
2022-08-20T02:16:55.474Z,17.20
2022-08-20T02:19:51.104Z,17.10
2022-08-20T02:22:36.516Z,17.10
2022-08-20T02:25:06.980Z,17.10
2022-08-20T02:27:34.633Z,17.10
2022-08-20T02:32:33.702Z,17.10
2022-08-20T02:35:05.943Z,17.10
2022-08-20T02:37:36.136Z,17.10
2022-08-20T02:40:07.977Z,17.10
2022-08-20T02:42:36.739Z,17.10
2022-08-20T02:45:04.303Z,17.00
2022-08-20T02:47:32.169Z,17.00
2022-08-20T02:49:59.787Z,17.00
2022-08-20T02:52:27.043Z,17.00
2022-08-20T02:54:57.549Z,17.00
2022-08-20T02:57:25.213Z,16.90
2022-08-20T02:59:53.790Z,16.90
2022-08-20T03:02:21.673Z,16.90
2022-08-20T03:04:52.449Z,16.90
2022-08-20T03:07:20.176Z,16.90
2022-08-20T03:09:47.664Z,16.90
2022-08-20T03:12:15.574Z,16.90
2022-08-20T03:14:45.836Z,16.80
2022-08-20T03:17:13.621Z,16.90
2022-08-20T03:19:41.262Z,16.90
2022-08-20T03:22:08.617Z,17.00
2022-08-20T03:24:36.306Z,17.00
2022-08-20T03:27:03.848Z,17.00
2022-08-20T03:29:34.049Z,17.00
2022-08-20T03:32:06.004Z,17.10
2022-08-20T03:34:35.702Z,17.00
2022-08-20T03:37:03.245Z,17.10
2022-08-20T03:41:58.174Z,17.20
2022-08-20T03:44:26.800Z,17.20
2022-08-20T03:46:54.482Z,17.20
2022-08-20T03:49:24.489Z,17.20
2022-08-20T03:51:57.218Z,17.40
2022-08-20T03:54:31.582Z,17.40
2022-08-20T03:57:00.433Z,17.30
2022-08-20T03:59:28.680Z,17.40
2022-08-20T04:01:56.636Z,17.40
2022-08-20T04:04:24.279Z,17.50
2022-08-20T04:06:51.907Z,17.60
2022-08-20T04:11:46.811Z,17.90
2022-08-20T04:14:18.427Z,17.90
2022-08-20T04:16:49.066Z,18.10
2022-08-20T04:19:19.222Z,18.10
2022-08-20T04:21:48.477Z,18.20
2022-08-20T04:24:31.143Z,18.30
2022-08-20T04:27:02.844Z,18.50
2022-08-20T04:32:03.360Z,18.40
2022-08-20T04:34:35.952Z,18.50
2022-08-20T04:37:03.588Z,18.60
2022-08-20T04:39:30.929Z,18.70
2022-08-20T04:42:01.367Z,18.80
2022-08-20T04:44:30.004Z,18.90
2022-08-20T04:46:58.026Z,19.00
2022-08-20T04:49:28.149Z,19.10
2022-08-20T04:51:55.835Z,19.00
2022-08-20T04:54:23.528Z,18.90
2022-08-20T04:56:51.505Z,18.80
2022-08-20T04:59:19.990Z,18.70
2022-08-20T05:01:52.918Z,18.60
2022-08-20T05:04:20.675Z,18.50
2022-08-20T05:06:49.607Z,18.50
2022-08-20T05:09:17.044Z,18.80
2022-08-20T05:14:15.674Z,18.70
2022-08-20T05:16:43.191Z,18.90
2022-08-20T05:19:13.891Z,19.60
2022-08-20T05:24:13.077Z,21.10
2022-08-20T05:26:40.680Z,21.10
2022-08-20T05:29:08.278Z,21.00
2022-08-20T05:31:36.402Z,21.00
2022-08-20T05:34:10.412Z,20.90
2022-08-20T05:36:46.977Z,21.00
2022-08-20T05:39:20.732Z,21.70
2022-08-20T05:41:49.982Z,21.90
2022-08-20T05:44:22.311Z,22.30
2022-08-20T05:46:49.622Z,22.70
2022-08-20T05:49:20.239Z,22.70
2022-08-20T05:51:49.026Z,22.20
2022-08-20T05:54:16.582Z,21.60
2022-08-20T05:56:44.368Z,21.90
2022-08-20T05:59:14.104Z,22.60
2022-08-20T06:01:42.914Z,23.80
2022-08-20T06:04:25.320Z,23.80
2022-08-20T06:06:57.141Z,23.70
2022-08-20T06:09:31.320Z,24.00
2022-08-20T06:12:06.125Z,24.40
2022-08-20T06:17:16.337Z,24.50
2022-08-20T06:19:45.864Z,24.20
2022-08-20T06:22:19.978Z,24.20
2022-08-20T06:24:53.688Z,23.60
2022-08-20T06:27:24.432Z,23.10
2022-08-20T06:29:52.242Z,22.40
2022-08-20T06:32:32.473Z,22.40
2022-08-20T06:35:02.339Z,22.40
2022-08-20T06:37:40.365Z,22.50
2022-08-20T06:40:17.165Z,22.80
2022-08-20T06:42:48.616Z,22.60
2022-08-20T06:45:20.083Z,24.20
2022-08-20T06:47:50.201Z,24.50
2022-08-20T06:50:23.716Z,24.90
2022-08-20T06:52:52.804Z,25.00
2022-08-20T06:55:31.009Z,25.00
2022-08-20T06:58:04.547Z,25.50
2022-08-20T07:00:33.460Z,25.50
2022-08-20T07:05:30.574Z,25.80
2022-08-20T07:07:58.785Z,24.70
2022-08-20T07:10:30.336Z,24.20
2022-08-20T07:12:59.382Z,25.20
2022-08-20T07:15:27.557Z,25.40
2022-08-20T07:18:01.206Z,26.10
2022-08-20T07:20:31.868Z,25.80
2022-08-20T07:23:00.647Z,26.20
2022-08-20T07:25:28.862Z,26.80
2022-08-20T07:28:02.323Z,27.30
2022-08-20T07:30:56.679Z,27.00
2022-08-20T07:33:29.887Z,26.20
2022-08-20T07:36:01.075Z,26.10
2022-08-20T07:38:30.706Z,25.90
2022-08-20T07:41:01.302Z,25.60
2022-08-20T07:43:29.610Z,24.80
2022-08-20T07:46:07.630Z,24.10
2022-08-20T07:48:40.082Z,23.60
2022-08-20T07:51:09.516Z,23.30
2022-08-20T07:53:44.025Z,23.00
2022-08-20T07:56:15.461Z,22.90
2022-08-20T07:58:49.813Z,22.60
2022-08-20T08:01:26.276Z,22.30
2022-08-20T08:03:57.764Z,22.10
2022-08-20T08:06:31.068Z,22.00
2022-08-20T08:09:08.014Z,22.00
2022-08-20T08:11:38.396Z,21.80
2022-08-20T08:14:09.933Z,21.60
2022-08-20T08:16:39.928Z,21.60
2022-08-20T08:19:14.415Z,21.70
2022-08-20T08:21:41.774Z,21.70
2022-08-20T08:24:09.115Z,21.80
2022-08-20T08:26:36.892Z,21.80
2022-08-20T08:29:07.762Z,21.30
2022-08-20T08:31:35.236Z,21.20
2022-08-20T08:34:02.739Z,21.10
2022-08-20T08:36:30.871Z,21.10
2022-08-20T08:38:58.265Z,21.00
2022-08-20T08:41:25.533Z,20.90
2022-08-20T08:46:27.580Z,20.80
2022-08-20T08:49:01.709Z,20.90
2022-08-20T08:51:36.938Z,21.00
2022-08-20T08:54:07.265Z,21.00
2022-08-20T08:56:35.596Z,21.00
2022-08-20T08:59:08.606Z,21.10
2022-08-20T09:01:55.499Z,21.20
2022-08-20T09:04:31.740Z,21.20
2022-08-20T09:07:00.324Z,21.30
2022-08-20T09:09:37.678Z,21.60
2022-08-20T09:12:13.886Z,21.60
2022-08-20T09:14:43.961Z,21.50
2022-08-20T09:17:11.481Z,21.40
2022-08-20T09:19:38.877Z,21.60
2022-08-20T09:22:11.373Z,21.30
2022-08-20T09:24:39.164Z,21.50
2022-08-20T09:27:06.814Z,21.50
2022-08-20T09:29:34.648Z,21.30
2022-08-20T09:34:42.653Z,20.80
2022-08-20T09:37:10.167Z,20.80
2022-08-20T09:42:14.656Z,20.80
2022-08-20T09:44:45.156Z,20.80
2022-08-20T09:47:13.330Z,20.70
2022-08-20T09:49:41.145Z,20.80
2022-08-20T09:52:11.591Z,20.90
2022-08-20T09:57:15.845Z,21.00
2022-08-20T09:59:44.284Z,20.90
2022-08-20T10:02:11.867Z,20.90
2022-08-20T10:04:39.240Z,20.90
2022-08-20T10:07:09.238Z,20.90
2022-08-20T10:14:34.861Z,21.50
2022-08-20T10:17:02.649Z,21.70
2022-08-20T10:19:31.566Z,21.70
2022-08-20T10:21:59.870Z,21.50
2022-08-20T10:24:27.498Z,21.50
2022-08-20T10:27:00.764Z,21.50
2022-08-20T10:29:29.860Z,21.40
2022-08-20T10:31:58.106Z,21.40
2022-08-20T10:36:56.176Z,21.40
2022-08-20T10:39:23.866Z,21.60
2022-08-20T10:41:51.292Z,21.70
2022-08-20T10:44:18.756Z,21.80
2022-08-20T10:46:46.448Z,21.80
2022-08-20T10:49:14.384Z,21.90
2022-08-20T10:51:41.986Z,21.90
2022-08-20T10:54:12.655Z,22.00
2022-08-20T10:56:40.235Z,22.10
2022-08-20T10:59:08.747Z,22.20
2022-08-20T11:01:36.898Z,22.20
2022-08-20T11:04:05.139Z,22.10
2022-08-20T11:06:32.940Z,22.20
2022-08-20T11:09:00.362Z,22.00
2022-08-20T11:11:28.061Z,21.80
2022-08-20T11:13:55.616Z,21.60
2022-08-20T11:18:51.963Z,21.50
2022-08-20T11:21:19.285Z,21.60
2022-08-20T11:23:46.922Z,21.70
2022-08-20T11:26:23.720Z,21.70
2022-08-20T11:28:51.388Z,21.40
2022-08-20T11:31:19.281Z,21.10
2022-08-20T11:33:47.040Z,21.30
2022-08-20T11:36:14.359Z,21.00
2022-08-20T11:38:41.768Z,21.00
2022-08-20T11:41:09.524Z,21.00
2022-08-20T11:43:37.145Z,21.10
2022-08-20T11:46:04.700Z,21.10
2022-08-20T11:48:31.982Z,21.10
2022-08-20T11:50:59.461Z,21.10
2022-08-20T11:55:56.402Z,21.20
2022-08-20T11:58:25.205Z,21.00
2022-08-20T12:00:52.755Z,21.50
2022-08-20T12:03:20.476Z,21.40
2022-08-20T12:05:48.239Z,21.40
2022-08-20T12:08:26.902Z,21.70
2022-08-20T12:10:56.827Z,21.60
2022-08-20T12:18:40.059Z,21.60
2022-08-20T12:21:07.616Z,21.50
2022-08-20T12:23:35.503Z,21.40
2022-08-20T12:28:31.734Z,21.30
2022-08-20T12:30:59.736Z,21.40
2022-08-20T12:33:27.384Z,21.40
2022-08-20T12:35:54.935Z,21.40
2022-08-20T12:38:22.811Z,21.30
2022-08-20T12:40:50.467Z,21.30
2022-08-20T12:43:21.662Z,21.10
2022-08-20T12:55:45.845Z,20.80
2022-08-20T13:00:46.528Z,21.10
2022-08-20T13:08:13.762Z,21.30
2022-08-20T13:10:45.761Z,21.30
2022-08-20T13:13:15.250Z,21.40
2022-08-20T13:15:45.126Z,21.40
2022-08-20T13:20:40.695Z,21.40
2022-08-20T13:28:05.810Z,21.30
2022-08-20T13:30:34.274Z,21.30
2022-08-20T13:33:01.676Z,21.30
2022-08-20T13:35:30.342Z,21.30
2022-08-20T13:42:55.119Z,21.30
2022-08-20T13:45:22.996Z,21.30
2022-08-20T13:47:54.687Z,19.40
2022-08-20T13:50:25.471Z,21.30
2022-08-20T13:52:53.347Z,21.20
2022-08-20T13:55:23.592Z,21.50
2022-08-20T13:57:51.603Z,21.40
2022-08-20T14:00:32.464Z,21.50
2022-08-20T14:03:05.846Z,21.40
2022-08-20T14:05:33.594Z,21.40
2022-08-20T14:08:11.568Z,21.60
2022-08-20T14:10:39.820Z,22.00
2022-08-20T14:13:15.067Z,22.30
2022-08-20T14:15:43.563Z,22.30
2022-08-20T14:18:11.415Z,22.30
2022-08-20T14:20:39.052Z,22.30
2022-08-20T14:25:35.159Z,22.30
2022-08-20T14:28:18.062Z,22.30
2022-08-20T14:30:52.507Z,22.30
2022-08-20T14:38:16.669Z,22.00
2022-08-20T14:40:44.225Z,22.00
2022-08-20T14:43:11.750Z,22.20
2022-08-20T14:45:39.297Z,22.20
2022-08-20T14:48:09.271Z,22.40
2022-08-20T14:50:37.543Z,22.40
2022-08-20T14:53:05.795Z,22.50
2022-08-20T14:55:38.960Z,22.60
2022-08-20T14:58:14.931Z,22.70
2022-08-20T15:00:43.048Z,22.70
2022-08-20T15:03:11.076Z,22.70
2022-08-20T15:05:39.474Z,22.90
2022-08-20T15:10:37.620Z,22.90
2022-08-20T15:13:05.325Z,22.70
2022-08-20T15:18:01.117Z,22.80
2022-08-20T15:20:31.386Z,22.80
2022-08-20T15:22:59.350Z,22.80
2022-08-20T15:25:37.005Z,22.80
2022-08-20T15:28:07.502Z,22.80
2022-08-20T15:30:35.470Z,22.80
2022-08-20T15:35:31.719Z,22.80
2022-08-20T15:37:59.918Z,22.80
2022-08-20T15:40:29.962Z,22.80
2022-08-20T15:42:58.891Z,22.80
2022-08-20T15:48:19.223Z,22.80
2022-08-20T15:51:16.928Z,22.80
2022-08-20T15:54:12.041Z,22.70
2022-08-20T15:59:22.558Z,22.60
2022-08-20T16:02:01.480Z,22.70
2022-08-20T16:04:58.465Z,22.40
2022-08-20T16:10:27.063Z,22.10
2022-08-20T16:12:58.748Z,22.10
2022-08-20T16:15:34.563Z,21.90
2022-08-20T16:18:21.237Z,21.90
2022-08-20T16:23:29.800Z,21.80
2022-08-20T16:26:11.563Z,21.80
2022-08-20T16:31:15.102Z,21.80
2022-08-20T16:34:01.383Z,21.80
2022-08-20T16:36:49.081Z,21.80
2022-08-20T16:39:43.708Z,21.80
2022-08-20T16:44:45.123Z,21.70
2022-08-20T16:47:21.354Z,21.80
2022-08-20T16:49:58.147Z,21.70
2022-08-20T17:00:19.318Z,21.50
2022-08-20T17:03:04.044Z,21.50
2022-08-20T17:05:49.680Z,21.50
2022-08-20T17:08:42.543Z,21.40
2022-08-20T17:11:17.191Z,21.40
2022-08-20T17:13:47.985Z,21.30
2022-08-20T17:18:52.051Z,21.20
2022-08-20T17:21:24.007Z,21.20
2022-08-20T17:24:16.812Z,21.10
2022-08-20T17:26:51.414Z,21.10
2022-08-20T17:31:58.101Z,21.00
2022-08-20T17:34:28.938Z,20.90
2022-08-20T17:36:59.449Z,20.90
2022-08-20T17:39:29.388Z,20.90
2022-08-20T17:42:25.659Z,20.80
2022-08-20T17:44:58.692Z,20.80
2022-08-20T17:47:34.867Z,20.70
2022-08-20T17:50:10.063Z,20.70
2022-08-20T17:52:46.941Z,20.60
2022-08-20T17:55:15.034Z,20.60
2022-08-20T17:57:46.761Z,20.50
2022-08-20T18:00:23.542Z,20.40
2022-08-20T18:03:10.048Z,20.40
2022-08-20T18:05:38.957Z,20.30
2022-08-20T18:11:17.285Z,20.10
2022-08-20T18:14:01.200Z,20.00
2022-08-20T18:16:44.987Z,20.00
2022-08-20T18:19:52.391Z,20.20
2022-08-20T18:22:28.677Z,19.70
2022-08-20T18:25:23.421Z,19.70
2022-08-20T18:27:55.526Z,19.60
2022-08-20T18:30:25.151Z,19.60
2022-08-20T18:33:04.260Z,19.50
2022-08-20T18:35:45.891Z,19.40
2022-08-20T18:43:31.664Z,19.20
2022-08-20T18:46:23.636Z,19.20
2022-08-20T18:48:56.903Z,19.10
2022-08-20T18:51:32.282Z,19.00
2022-08-20T18:59:15.700Z,18.80
2022-08-20T19:04:26.370Z,18.60
2022-08-20T19:07:02.096Z,18.50
2022-08-20T19:09:56.741Z,18.50
2022-08-20T19:15:12.168Z,18.50
2022-08-20T19:17:57.243Z,18.50
2022-08-20T19:20:32.617Z,18.50
2022-08-20T19:23:06.408Z,18.60
2022-08-20T19:25:38.718Z,18.60
2022-08-20T19:28:20.602Z,18.60
2022-08-20T19:43:18.479Z,18.60
2022-08-20T19:45:50.451Z,18.60
2022-08-20T19:53:34.007Z,18.60
2022-08-20T19:56:13.567Z,18.70
2022-08-20T19:58:42.447Z,18.70
2022-08-20T20:01:17.609Z,18.70
2022-08-20T20:04:01.933Z,18.80
2022-08-20T20:06:33.976Z,18.80
2022-08-20T20:09:07.487Z,18.80
2022-08-20T20:11:42.888Z,18.80
2022-08-20T20:14:13.663Z,18.70
2022-08-20T20:16:42.563Z,18.70
2022-08-20T20:19:26.485Z,18.70
2022-08-20T20:22:19.936Z,18.70
2022-08-20T20:24:57.806Z,18.70
2022-08-20T20:27:27.038Z,18.70
2022-08-20T20:30:11.675Z,18.70
2022-08-20T20:32:44.410Z,18.70
2022-08-20T20:37:50.550Z,18.70
2022-08-20T20:40:28.108Z,18.70
2022-08-20T20:42:59.866Z,18.70
2022-08-20T20:45:33.679Z,18.80
2022-08-20T20:48:10.513Z,18.90
2022-08-20T20:50:38.732Z,18.80
2022-08-20T20:55:35.859Z,18.90
2022-08-20T20:58:04.168Z,18.90
2022-08-20T21:00:34.579Z,18.90
2022-08-20T21:05:33.249Z,18.90
2022-08-20T21:08:03.714Z,18.90
2022-08-20T21:10:35.030Z,18.90
2022-08-20T21:15:34.253Z,19.00
2022-08-20T21:18:04.720Z,18.90
2022-08-20T21:20:33.096Z,18.90
2022-08-20T21:23:00.730Z,18.90
2022-08-20T21:25:29.714Z,18.90
2022-08-20T21:30:26.167Z,18.90
2022-08-20T21:35:22.669Z,18.90
2022-08-20T21:45:19.881Z,18.70
2022-08-20T21:47:49.114Z,18.60
2022-08-20T21:50:18.814Z,18.60
2022-08-20T21:52:58.027Z,18.60
2022-08-20T22:00:46.166Z,18.50
2022-08-20T22:08:10.518Z,18.40
2022-08-20T22:13:06.369Z,18.30
2022-08-20T22:18:01.858Z,18.20
2022-08-20T22:20:29.950Z,18.20
2022-08-20T22:30:21.468Z,18.20
2022-08-20T22:35:29.507Z,18.20
2022-08-20T22:40:26.504Z,18.20
2022-08-20T22:45:24.394Z,18.30
2022-08-20T22:50:21.844Z,18.30
2022-08-20T22:52:49.549Z,18.30
2022-08-20T23:00:17.441Z,18.30
2022-08-20T23:02:51.851Z,18.30
2022-08-20T23:05:22.322Z,18.30
2022-08-20T23:20:17.120Z,18.30
2022-08-20T23:25:13.578Z,18.30
2022-08-20T23:27:50.054Z,18.30
2022-08-20T23:30:20.119Z,18.30
2022-08-20T23:32:48.151Z,18.30
2022-08-20T23:35:16.288Z,18.30
2022-08-20T23:37:52.996Z,18.30
2022-08-20T23:40:28.113Z,18.30
2022-08-20T23:42:57.243Z,18.30
2022-08-20T23:50:24.503Z,18.30
2022-08-20T23:52:52.912Z,18.30
2022-08-20T23:55:21.258Z,18.30
